createdAt,value
2023-05-08T00:00:33.211Z,74.07
2023-05-08T00:03:00.328Z,72.93
2023-05-08T00:05:27.272Z,71.66
2023-05-08T00:08:01.312Z,74.45
2023-05-08T00:10:29.189Z,74.95
2023-05-08T00:12:56.497Z,77.03
2023-05-08T00:15:23.367Z,74.71
2023-05-08T00:17:50.287Z,74.81
2023-05-08T00:20:17.180Z,75.73
2023-05-08T00:22:44.055Z,74.97
2023-05-08T00:25:10.976Z,75.70
2023-05-08T00:27:37.886Z,79.49
2023-05-08T00:30:05.858Z,76.74
2023-05-08T00:32:32.733Z,76.26
2023-05-08T00:34:59.649Z,74.78
2023-05-08T00:37:26.496Z,73.40
2023-05-08T00:39:53.314Z,75.57
2023-05-08T00:42:19.999Z,73.26
2023-05-08T00:44:46.936Z,71.55
2023-05-08T00:47:13.828Z,73.71
2023-05-08T00:49:40.932Z,71.22
2023-05-08T00:52:11.214Z,68.50
2023-05-08T00:54:38.578Z,64.65
2023-05-08T00:57:08.788Z,62.32
2023-05-08T00:59:36.827Z,64.18
2023-05-08T01:02:04.295Z,64.72
2023-05-08T01:04:32.039Z,63.05
2023-05-08T01:06:58.925Z,60.68
2023-05-08T01:09:25.987Z,60.06
2023-05-08T01:12:18.205Z,59.28
2023-05-08T01:14:58.751Z,58.93
2023-05-08T01:17:51.102Z,57.88
2023-05-08T01:21:03.193Z,56.97
2023-05-08T01:23:42.119Z,57.40
2023-05-08T01:26:11.608Z,55.09
2023-05-08T01:29:00.822Z,52.80
2023-05-08T01:32:04.910Z,51.50
2023-05-08T01:34:33.394Z,51.27
2023-05-08T01:37:04.106Z,53.69
2023-05-08T01:39:40.204Z,55.52
2023-05-08T01:42:36.068Z,55.47
2023-05-08T01:45:13.122Z,55.76
2023-05-08T01:47:41.497Z,54.17
2023-05-08T01:50:22.525Z,52.06
2023-05-08T01:52:52.017Z,51.81
2023-05-08T01:55:27.871Z,51.12
2023-05-08T01:57:55.548Z,52.34
2023-05-08T02:00:24.525Z,51.55
2023-05-08T02:02:52.871Z,51.33
2023-05-08T02:05:21.712Z,51.87
2023-05-08T02:07:49.840Z,52.55
2023-05-08T02:10:17.726Z,52.84
2023-05-08T02:12:45.218Z,54.97
2023-05-08T02:15:14.180Z,54.73
2023-05-08T02:17:41.896Z,54.28
2023-05-08T02:20:14.969Z,55.88
2023-05-08T02:22:46.555Z,56.78
2023-05-08T02:25:14.873Z,58.61
2023-05-08T02:27:47.016Z,61.29
2023-05-08T02:30:15.933Z,59.76
2023-05-08T02:32:44.059Z,56.45
2023-05-08T02:35:20.483Z,56.19
2023-05-08T02:37:51.435Z,56.46
2023-05-08T02:40:18.981Z,55.46
2023-05-08T02:42:47.035Z,56.86
2023-05-08T02:45:14.834Z,59.97
2023-05-08T02:48:02.269Z,61.34
2023-05-08T02:50:59.461Z,58.44
2023-05-08T02:53:41.247Z,55.94
2023-05-08T02:56:15.280Z,56.38
2023-05-08T02:58:49.002Z,54.66
2023-05-08T03:01:27.254Z,55.14
2023-05-08T03:04:01.685Z,54.02
2023-05-08T03:06:35.580Z,54.28
2023-05-08T03:09:04.150Z,52.22
2023-05-08T03:11:37.407Z,53.45
2023-05-08T03:14:06.530Z,54.71
2023-05-08T03:16:35.456Z,54.84
2023-05-08T03:19:06.003Z,54.85
2023-05-08T03:21:32.883Z,54.77
2023-05-08T03:24:01.257Z,54.83
2023-05-08T03:26:28.264Z,55.69
2023-05-08T03:28:56.970Z,56.35
2023-05-08T03:31:24.553Z,56.62
2023-05-08T03:33:53.613Z,56.93
2023-05-08T03:36:21.530Z,56.80
2023-05-08T03:38:48.785Z,56.84
2023-05-08T03:41:15.651Z,56.31
2023-05-08T03:43:42.602Z,54.72
2023-05-08T03:46:10.517Z,55.89
2023-05-08T03:48:37.975Z,56.11
2023-05-08T03:51:05.495Z,56.48
2023-05-08T03:53:33.376Z,55.87
2023-05-08T03:56:00.883Z,53.98
2023-05-08T03:58:45.057Z,52.33
2023-05-08T04:01:26.152Z,49.90
2023-05-08T04:04:15.172Z,47.08
2023-05-08T04:06:51.349Z,45.74
2023-05-08T04:09:28.418Z,43.84
2023-05-08T04:12:05.933Z,43.74
2023-05-08T04:14:38.327Z,43.83
2023-05-08T04:17:08.142Z,43.05
2023-05-08T04:19:39.520Z,42.04
2023-05-08T04:22:07.918Z,41.33
2023-05-08T04:24:37.931Z,39.81
2023-05-08T04:27:05.214Z,38.58
2023-05-08T04:29:32.760Z,39.45
2023-05-08T04:32:01.243Z,38.88
2023-05-08T04:34:29.319Z,38.74
2023-05-08T04:36:56.574Z,37.88
2023-05-08T04:39:23.408Z,36.60
2023-05-08T04:41:52.587Z,35.40
2023-05-08T04:44:19.487Z,34.59
2023-05-08T04:46:46.339Z,34.68
2023-05-08T04:49:13.188Z,35.24
2023-05-08T04:51:40.052Z,35.31
2023-05-08T04:54:06.896Z,37.58
2023-05-08T04:56:33.782Z,35.90
2023-05-08T04:59:00.647Z,37.03
2023-05-08T05:01:27.535Z,38.70
2023-05-08T05:03:54.433Z,38.52
2023-05-08T05:06:21.334Z,38.56
2023-05-08T05:08:48.173Z,37.28
2023-05-08T05:11:15.019Z,36.00
2023-05-08T05:13:41.868Z,35.31
2023-05-08T05:16:08.801Z,36.97
2023-05-08T05:18:36.029Z,38.23
2023-05-08T05:21:03.850Z,37.92
2023-05-08T05:23:30.732Z,36.77
2023-05-08T05:25:57.672Z,36.18
2023-05-08T05:28:24.520Z,36.84
2023-05-08T05:30:52.027Z,37.06
2023-05-08T05:33:18.946Z,39.15
2023-05-08T05:35:45.804Z,40.44
2023-05-08T05:38:12.681Z,39.81
2023-05-08T05:40:39.560Z,38.34
2023-05-08T05:43:06.417Z,38.98
2023-05-08T05:45:33.782Z,37.17
2023-05-08T05:48:00.766Z,36.64
2023-05-08T05:50:27.856Z,36.56
2023-05-08T05:52:57.510Z,35.46
2023-05-08T05:55:24.503Z,35.11
2023-05-08T05:57:51.388Z,34.70
2023-05-08T06:00:18.598Z,36.15
2023-05-08T06:02:45.778Z,35.12
2023-05-08T06:05:13.133Z,34.12
2023-05-08T06:07:40.209Z,33.17
2023-05-08T06:10:07.764Z,33.96
2023-05-08T06:12:34.905Z,34.19
2023-05-08T06:15:01.780Z,34.33
2023-05-08T06:17:28.623Z,33.47
2023-05-08T06:19:56.155Z,33.21
2023-05-08T06:22:24.470Z,38.89
2023-05-08T06:24:54.560Z,38.49
2023-05-08T06:27:22.526Z,36.68
2023-05-08T06:29:53.178Z,34.72
2023-05-08T06:32:20.874Z,38.29
2023-05-08T06:34:48.146Z,37.47
2023-05-08T06:37:15.103Z,36.15
2023-05-08T06:39:42.019Z,34.77
2023-05-08T06:42:09.117Z,35.86
2023-05-08T06:44:36.292Z,33.84
2023-05-08T06:47:03.357Z,33.03
2023-05-08T06:49:30.783Z,32.79
2023-05-08T06:51:58.191Z,35.40
2023-05-08T06:54:25.514Z,35.44
2023-05-08T06:56:54.201Z,36.53
2023-05-08T06:59:23.351Z,35.83
2023-05-08T07:01:50.733Z,35.62
2023-05-08T07:04:17.679Z,34.78
2023-05-08T07:06:44.563Z,36.35
2023-05-08T07:09:12.066Z,38.32
2023-05-08T07:11:38.965Z,41.52
2023-05-08T07:14:05.804Z,40.27
2023-05-08T07:16:32.794Z,37.27
2023-05-08T07:18:59.835Z,40.61
2023-05-08T07:21:26.646Z,37.09
2023-05-08T07:23:54.831Z,38.49
2023-05-08T07:26:22.724Z,36.99
2023-05-08T07:28:51.053Z,35.62
2023-05-08T07:31:18.005Z,33.65
2023-05-08T07:33:44.989Z,33.04
2023-05-08T07:36:11.996Z,39.41
2023-05-08T07:38:38.927Z,39.45
2023-05-08T07:41:05.852Z,39.82
2023-05-08T07:43:32.949Z,39.38
2023-05-08T07:45:59.890Z,38.64
2023-05-08T07:48:27.017Z,39.48
2023-05-08T07:50:53.878Z,36.04
2023-05-08T07:53:20.752Z,37.37
2023-05-08T07:55:47.909Z,38.61
2023-05-08T07:58:23.801Z,37.23
2023-05-08T08:00:50.945Z,38.97
2023-05-08T08:03:17.921Z,38.52
2023-05-08T08:05:44.926Z,39.59
2023-05-08T08:08:11.945Z,39.13
2023-05-08T08:10:39.765Z,35.32
2023-05-08T08:13:06.958Z,38.26
2023-05-08T08:15:33.892Z,39.42
2023-05-08T08:18:00.857Z,36.45
2023-05-08T08:20:27.748Z,37.24
2023-05-08T08:22:54.686Z,38.06
2023-05-08T08:25:24.567Z,38.61
2023-05-08T08:27:51.570Z,38.73
2023-05-08T08:30:18.957Z,40.86
2023-05-08T08:35:19.958Z,43.31
2023-05-08T08:37:46.960Z,37.75
2023-05-08T08:40:13.995Z,36.94
2023-05-08T08:42:41.134Z,38.98
2023-05-08T08:45:08.822Z,40.81
2023-05-08T08:47:41.596Z,40.86
2023-05-08T08:50:12.043Z,40.49
2023-05-08T08:52:43.444Z,39.56
2023-05-08T08:55:13.273Z,42.64
2023-05-08T08:58:06.545Z,39.93
2023-05-08T09:00:33.481Z,38.25
2023-05-08T09:03:00.833Z,39.97
2023-05-08T09:05:28.136Z,45.37
2023-05-08T09:07:55.886Z,46.31
2023-05-08T09:10:24.511Z,46.14
2023-05-08T09:12:53.983Z,47.94
2023-05-08T09:15:21.085Z,44.85
2023-05-08T09:17:48.002Z,48.97
2023-05-08T09:20:16.264Z,43.63
2023-05-08T09:22:43.823Z,42.78
2023-05-08T09:25:11.231Z,46.25
2023-05-08T09:27:38.571Z,44.39
2023-05-08T09:30:07.614Z,42.29
2023-05-08T09:32:36.639Z,42.65
2023-05-08T09:35:04.903Z,42.90
2023-05-08T09:37:32.142Z,43.89
2023-05-08T09:40:20.071Z,45.58
2023-05-08T09:42:50.308Z,45.01
2023-05-08T09:45:35.466Z,48.72
2023-05-08T09:48:02.590Z,52.30
2023-05-08T09:50:29.596Z,48.35
2023-05-08T09:52:56.595Z,49.37
2023-05-08T09:55:23.447Z,50.14
2023-05-08T09:57:54.311Z,45.31
2023-05-08T10:00:21.643Z,45.62
2023-05-08T10:02:59.956Z,45.04
2023-05-08T10:05:32.487Z,45.73
2023-05-08T10:08:18.544Z,46.69
2023-05-08T10:10:45.457Z,49.22
2023-05-08T10:13:12.422Z,49.36
2023-05-08T10:15:44.489Z,46.07
2023-05-08T10:18:14.869Z,47.03
2023-05-08T10:20:44.536Z,44.86
2023-05-08T10:23:15.322Z,44.36
2023-05-08T10:25:49.528Z,48.15
2023-05-08T10:28:35.482Z,44.66
2023-05-08T10:31:03.913Z,44.59
2023-05-08T10:33:34.384Z,48.43
2023-05-08T10:36:01.794Z,49.85
2023-05-08T10:38:28.772Z,45.81
2023-05-08T10:40:58.310Z,42.38
2023-05-08T10:43:26.118Z,44.50
2023-05-08T10:45:57.170Z,42.24
2023-05-08T10:48:45.826Z,41.13
2023-05-08T10:51:41.016Z,44.59
2023-05-08T10:54:24.871Z,44.17
2023-05-08T10:56:51.817Z,41.53
2023-05-08T10:59:20.035Z,42.49
2023-05-08T11:01:50.835Z,42.85
2023-05-08T11:04:22.560Z,41.10
2023-05-08T11:06:53.095Z,38.06
2023-05-08T11:09:41.951Z,39.71
2023-05-08T11:12:24.425Z,44.83
2023-05-08T11:15:10.339Z,45.42
2023-05-08T11:17:37.263Z,44.90
2023-05-08T11:20:07.139Z,44.69
2023-05-08T11:22:38.329Z,41.36
2023-05-08T11:25:10.020Z,42.28
2023-05-08T11:27:49.902Z,39.05
2023-05-08T11:30:36.765Z,37.09
2023-05-08T11:33:09.406Z,34.60
2023-05-08T11:35:44.818Z,33.50
2023-05-08T11:38:36.140Z,34.93
2023-05-08T11:41:21.800Z,36.57
2023-05-08T11:44:10.840Z,37.23
2023-05-08T11:46:39.521Z,37.94
2023-05-08T11:49:14.606Z,37.36
2023-05-08T11:51:45.078Z,38.66
2023-05-08T11:54:19.526Z,38.18
2023-05-08T12:02:43.911Z,35.50
2023-05-08T12:05:11.604Z,34.39
2023-05-08T12:07:46.849Z,33.50
2023-05-08T12:10:17.728Z,32.70
2023-05-08T12:12:45.547Z,33.53
2023-05-08T12:18:17.785Z,33.28
2023-05-08T12:20:54.644Z,36.35
2023-05-08T12:29:08.715Z,39.56
2023-05-08T12:31:42.605Z,43.17
2023-05-08T12:37:12.255Z,41.54
2023-05-08T12:39:45.932Z,38.84
2023-05-08T12:42:12.957Z,37.87
2023-05-08T12:44:39.859Z,34.61
2023-05-08T12:47:06.917Z,37.12
2023-05-08T12:49:33.768Z,35.12
2023-05-08T12:52:05.548Z,34.88
2023-05-08T12:54:49.480Z,40.92
2023-05-08T12:57:17.911Z,37.20
2023-05-08T12:59:46.204Z,37.93
2023-05-08T13:02:18.398Z,34.09
2023-05-08T13:04:45.991Z,39.43
2023-05-08T13:07:12.955Z,35.48
2023-05-08T13:09:40.256Z,36.31
2023-05-08T13:12:07.422Z,39.48
2023-05-08T13:14:34.318Z,36.59
2023-05-08T13:17:01.392Z,37.91
2023-05-08T13:19:28.374Z,39.53
2023-05-08T13:21:55.255Z,41.08
2023-05-08T13:24:22.089Z,39.95
2023-05-08T13:26:48.956Z,40.51
2023-05-08T13:29:15.821Z,40.30
2023-05-08T13:31:42.697Z,39.81
2023-05-08T13:34:10.205Z,41.95
2023-05-08T13:36:37.172Z,39.15
2023-05-08T13:39:04.295Z,36.15
2023-05-08T13:41:31.257Z,36.26
2023-05-08T13:43:58.122Z,35.97
2023-05-08T13:46:25.396Z,41.10
2023-05-08T13:48:52.296Z,39.64
2023-05-08T13:51:19.193Z,40.15
2023-05-08T13:53:46.024Z,38.27
2023-05-08T13:56:12.997Z,39.11
2023-05-08T13:58:40.428Z,38.94
2023-05-08T14:01:21.745Z,41.30
2023-05-08T14:03:52.336Z,38.91
2023-05-08T14:06:20.638Z,40.01
2023-05-08T14:08:50.424Z,41.96
2023-05-08T14:11:18.500Z,36.00
2023-05-08T14:13:45.371Z,33.59
2023-05-08T14:16:14.518Z,34.31
2023-05-08T14:18:41.491Z,34.39
2023-05-08T14:21:08.343Z,32.62
2023-05-08T14:23:36.141Z,31.22
2023-05-08T14:26:03.098Z,35.58
2023-05-08T14:28:29.989Z,34.68
2023-05-08T14:30:56.882Z,37.01
2023-05-08T14:33:23.837Z,37.25
2023-05-08T14:35:50.697Z,37.86
2023-05-08T14:38:17.564Z,37.18
2023-05-08T14:40:44.377Z,37.48
2023-05-08T14:43:11.212Z,36.61
2023-05-08T14:45:38.073Z,36.45
2023-05-08T14:48:05.361Z,36.96
2023-05-08T14:50:32.228Z,35.77
2023-05-08T14:52:59.182Z,36.80
2023-05-08T14:55:26.549Z,36.76
2023-05-08T14:57:53.508Z,34.75
2023-05-08T15:00:21.515Z,33.61
2023-05-08T15:02:48.914Z,34.30
2023-05-08T15:05:19.903Z,39.32
2023-05-08T15:10:14.185Z,39.08
2023-05-08T15:12:41.128Z,39.83
2023-05-08T15:15:08.376Z,40.11
2023-05-08T15:17:36.627Z,41.75
2023-05-08T15:20:04.501Z,39.77
2023-05-08T15:22:31.557Z,39.10
2023-05-08T15:25:02.593Z,38.76
2023-05-08T15:27:30.065Z,39.86
2023-05-08T15:29:57.115Z,39.33
2023-05-08T15:32:24.833Z,38.29
2023-05-08T15:34:51.719Z,38.42
2023-05-08T15:37:18.586Z,38.77
2023-05-08T15:39:45.547Z,37.53
2023-05-08T15:42:12.366Z,34.81
2023-05-08T15:47:08.956Z,34.56
2023-05-08T15:49:35.788Z,35.07
2023-05-08T15:52:02.663Z,33.39
2023-05-08T15:54:29.532Z,36.79
2023-05-08T15:56:56.369Z,35.19
2023-05-08T15:59:23.770Z,36.08
2023-05-08T16:01:51.510Z,37.09
2023-05-08T16:04:19.134Z,38.43
2023-05-08T16:06:45.990Z,40.98
2023-05-08T16:09:12.855Z,39.22
2023-05-08T16:11:39.696Z,40.17
2023-05-08T16:14:06.539Z,39.98
2023-05-08T16:16:33.493Z,39.49
2023-05-08T16:19:00.453Z,39.17
2023-05-08T16:21:27.805Z,36.02
2023-05-08T16:23:54.653Z,36.99
2023-05-08T16:26:22.579Z,37.00
2023-05-08T16:28:49.649Z,36.41
2023-05-08T16:31:17.212Z,34.98
2023-05-08T16:33:44.184Z,35.81
2023-05-08T16:36:11.062Z,36.29
2023-05-08T16:38:37.946Z,35.22
2023-05-08T16:41:05.868Z,34.41
2023-05-08T16:43:33.186Z,34.31
2023-05-08T16:46:00.073Z,33.75
2023-05-08T16:48:28.184Z,33.13
2023-05-08T16:50:55.904Z,33.31
2023-05-08T16:53:22.810Z,33.03
2023-05-08T16:55:49.648Z,32.95
2023-05-08T16:58:16.522Z,32.75
2023-05-08T17:00:45.644Z,32.62
2023-05-08T17:03:12.543Z,34.57
2023-05-08T17:05:39.419Z,35.25
2023-05-08T17:08:06.305Z,35.55
2023-05-08T17:10:33.117Z,35.95
2023-05-08T17:13:00.019Z,36.45
2023-05-08T17:15:26.921Z,33.86
2023-05-08T17:17:53.908Z,34.11
2023-05-08T17:20:21.016Z,34.64
2023-05-08T17:22:47.877Z,35.17
2023-05-08T17:25:14.757Z,34.86
2023-05-08T17:27:41.652Z,35.53
2023-05-08T17:30:12.236Z,35.68
2023-05-08T17:32:39.530Z,35.44
2023-05-08T17:35:06.979Z,35.83
2023-05-08T17:37:33.862Z,35.72
2023-05-08T17:40:00.695Z,34.87
2023-05-08T17:42:27.592Z,36.57
2023-05-08T17:44:54.437Z,37.17
2023-05-08T17:47:21.443Z,37.74
2023-05-08T17:49:48.309Z,38.35
2023-05-08T17:52:15.699Z,39.26
2023-05-08T17:54:42.586Z,38.72
2023-05-08T17:57:09.485Z,38.68
2023-05-08T17:59:36.300Z,38.83
2023-05-08T18:02:03.289Z,39.33
2023-05-08T18:04:30.192Z,40.21
2023-05-08T18:06:57.036Z,41.49
2023-05-08T18:09:23.861Z,41.67
2023-05-08T18:11:50.742Z,45.47
2023-05-08T18:14:17.554Z,45.71
2023-05-08T18:16:44.451Z,45.18
2023-05-08T18:19:11.977Z,44.06
2023-05-08T18:21:38.842Z,45.47
2023-05-08T18:24:06.152Z,45.95
2023-05-08T18:26:33.042Z,48.37
2023-05-08T18:28:59.984Z,50.04
2023-05-08T18:31:26.900Z,50.73
2023-05-08T18:33:53.825Z,53.40
2023-05-08T18:36:20.688Z,54.41
2023-05-08T18:38:47.536Z,53.63
2023-05-08T18:41:14.426Z,53.07
2023-05-08T18:43:44.911Z,50.98
2023-05-08T18:46:12.761Z,52.91
2023-05-08T18:48:42.943Z,51.45
2023-05-08T18:51:10.354Z,52.72
2023-05-08T18:53:38.593Z,50.94
2023-05-08T18:56:05.852Z,48.96
2023-05-08T18:58:32.835Z,47.96
2023-05-08T19:00:59.761Z,49.67
2023-05-08T19:03:27.048Z,48.01
2023-05-08T19:05:57.117Z,48.56
2023-05-08T19:08:24.265Z,48.93
2023-05-08T19:10:51.111Z,49.67
2023-05-08T19:13:17.940Z,51.02
2023-05-08T19:15:44.853Z,51.17
2023-05-08T19:18:12.839Z,52.80
2023-05-08T19:20:39.723Z,53.71
2023-05-08T19:23:06.562Z,53.32
2023-05-08T19:25:33.413Z,55.60
2023-05-08T19:28:00.309Z,53.72
2023-05-08T19:30:27.180Z,51.52
2023-05-08T19:32:54.034Z,53.12
2023-05-08T19:35:21.384Z,51.50
2023-05-08T19:37:48.256Z,52.40
2023-05-08T19:40:16.541Z,54.37
2023-05-08T19:42:46.644Z,53.73
2023-05-08T19:45:13.639Z,52.95
2023-05-08T19:47:40.549Z,52.93
2023-05-08T19:50:08.002Z,51.65
2023-05-08T19:52:34.878Z,51.92
2023-05-08T19:55:01.740Z,52.36
2023-05-08T19:57:28.559Z,51.42
2023-05-08T19:59:56.125Z,51.53
2023-05-08T20:02:23.008Z,52.84
2023-05-08T20:05:14.311Z,51.07
2023-05-08T20:07:36.708Z,53.37
2023-05-08T20:10:03.760Z,52.74
2023-05-08T20:12:30.652Z,50.90
2023-05-08T20:14:57.501Z,52.32
2023-05-08T20:17:24.399Z,51.74
2023-05-08T20:19:51.298Z,52.25
2023-05-08T20:22:18.399Z,53.27
2023-05-08T20:24:45.223Z,52.49
2023-05-08T20:27:11.849Z,52.20
2023-05-08T20:29:38.728Z,51.51
2023-05-08T20:32:07.426Z,52.46
2023-05-08T20:34:34.671Z,53.25
2023-05-08T20:37:03.865Z,53.02
2023-05-08T20:39:30.764Z,50.47
2023-05-08T20:41:57.620Z,52.14
2023-05-08T20:44:24.582Z,51.01
2023-05-08T20:46:51.977Z,50.41
2023-05-08T20:49:18.843Z,50.89
2023-05-08T20:51:45.756Z,52.30
2023-05-08T20:54:12.581Z,51.48
2023-05-08T20:56:39.286Z,50.20
2023-05-08T20:59:06.181Z,49.91
2023-05-08T21:01:33.068Z,52.27
2023-05-08T21:03:59.904Z,51.58
2023-05-08T21:06:26.601Z,50.86
2023-05-08T21:08:53.471Z,50.48
2023-05-08T21:11:21.299Z,50.76
2023-05-08T21:13:48.260Z,51.17
2023-05-08T21:16:15.129Z,53.27
2023-05-08T21:18:42.130Z,51.61
2023-05-08T21:21:20.065Z,50.35
2023-05-08T21:23:46.910Z,49.83
2023-05-08T21:26:13.843Z,50.48
2023-05-08T21:28:40.944Z,49.69
2023-05-08T21:31:07.873Z,49.35
2023-05-08T21:33:35.125Z,49.46
2023-05-08T21:36:02.082Z,49.96
2023-05-08T21:38:30.097Z,49.31
2023-05-08T21:40:57.114Z,51.24
2023-05-08T21:43:23.989Z,50.32
2023-05-08T21:45:50.859Z,51.74
2023-05-08T21:48:17.718Z,51.08
2023-05-08T21:50:44.536Z,52.20
2023-05-08T21:53:11.248Z,50.47
2023-05-08T21:55:38.128Z,50.78
2023-05-08T21:58:05.072Z,52.20
2023-05-08T22:00:31.917Z,50.79
2023-05-08T22:02:58.634Z,52.42
2023-05-08T22:05:25.539Z,53.41
2023-05-08T22:07:52.417Z,53.00
2023-05-08T22:10:21.510Z,54.39
2023-05-08T22:12:48.931Z,53.70
2023-05-08T22:15:28.563Z,53.68
2023-05-08T22:17:57.031Z,53.75
2023-05-08T22:20:24.005Z,52.73
2023-05-08T22:22:50.940Z,52.46
2023-05-08T22:25:17.846Z,52.02
2023-05-08T22:27:45.538Z,51.41
2023-05-08T22:30:12.727Z,52.49
2023-05-08T22:32:39.747Z,51.88
2023-05-08T22:35:07.027Z,51.49
2023-05-08T22:37:33.877Z,51.68
2023-05-08T22:40:00.762Z,52.06
2023-05-08T22:42:27.648Z,51.61
2023-05-08T22:44:54.529Z,51.65
2023-05-08T22:47:21.399Z,50.57
2023-05-08T22:49:48.940Z,52.20
2023-05-08T22:52:17.183Z,49.65
2023-05-08T22:54:44.061Z,49.16
2023-05-08T22:57:10.905Z,50.71
2023-05-08T22:59:37.820Z,50.33
2023-05-08T23:02:04.676Z,50.44
2023-05-08T23:04:31.378Z,51.09
2023-05-08T23:06:58.243Z,50.22
2023-05-08T23:09:24.972Z,50.72
2023-05-08T23:11:51.841Z,51.30
2023-05-08T23:14:18.722Z,52.68
2023-05-08T23:16:46.264Z,51.17
2023-05-08T23:19:13.189Z,52.12
2023-05-08T23:21:40.027Z,52.65
2023-05-08T23:24:06.784Z,51.47
2023-05-08T23:26:33.659Z,50.93
2023-05-08T23:29:00.833Z,51.34
2023-05-08T23:31:27.873Z,52.14
2023-05-08T23:33:54.732Z,51.45
2023-05-08T23:36:22.101Z,52.32
2023-05-08T23:38:49.001Z,50.41
2023-05-08T23:41:15.880Z,51.53
2023-05-08T23:43:42.680Z,51.24
2023-05-08T23:46:09.976Z,50.01
2023-05-08T23:48:36.873Z,49.97
2023-05-08T23:51:03.860Z,50.57
2023-05-08T23:53:30.740Z,51.90
2023-05-08T23:55:57.877Z,60.73
2023-05-08T23:58:24.748Z,60.10
